SWR7PW LSZH-EDDM
Flight info
| Callsign | SWR7PW |
|---|---|
| Flight time | 0h 28m |
| Altitude | 20000 |
| Route | DEGES Z6 NUNRI/N0358F190 T103 BETOS |
| Aircraft | A320/M-SDE3FGHIRWY/LB1 |
Departure
| Time | 2026-05-06 12:37 |
|---|---|
| Airport | Zürich Airport (LSZH) |
Arrival
| Time | 2026-05-06 13:06 |
|---|---|
| Airport | Munich Airport (EDDM) |
| Time | Latitude | Longitude | Altitude | Speed | Heading |
|---|---|---|---|---|---|
| 2026-05-06 12:19 | 47.45409 | 8.55946 | 1397 ft | 0 kts | 185° |
| 2026-05-06 12:28 | 47.45411 | 8.55946 | 1397 ft | 2 kts | 185° |
| 2026-05-06 12:29 | 47.45436 | 8.55949 | 1390 ft | 4 kts | 180° |
| 2026-05-06 12:29 | 47.45463 | 8.55947 | 1406 ft | 4 kts | 170° |
| 2026-05-06 12:29 | 47.45488 | 8.55936 | 1400 ft | 4 kts | 137° |
| 2026-05-06 12:29 | 47.45496 | 8.55916 | 1407 ft | 1 kts | 96° |
| 2026-05-06 12:30 | 47.45496 | 8.55912 | 1407 ft | 0 kts | 96° |
| 2026-05-06 12:32 | 47.45494 | 8.55945 | 1404 ft | 9 kts | 96° |
| 2026-05-06 12:32 | 47.45484 | 8.56100 | 1397 ft | 21 kts | 95° |
| 2026-05-06 12:32 | 47.45532 | 8.56313 | 1399 ft | 24 kts | 51° |
| 2026-05-06 12:32 | 47.45588 | 8.56527 | 1402 ft | 22 kts | 97° |
| 2026-05-06 12:33 | 47.45575 | 8.56719 | 1405 ft | 16 kts | 98° |
| 2026-05-06 12:33 | 47.45565 | 8.56857 | 1397 ft | 11 kts | 95° |
| 2026-05-06 12:33 | 47.45561 | 8.56936 | 1397 ft | 4 kts | 89° |
| 2026-05-06 12:33 | 47.45577 | 8.56989 | 1405 ft | 5 kts | 51° |
| 2026-05-06 12:34 | 47.45578 | 8.56991 | 1405 ft | 0 kts | 51° |
| 2026-05-06 12:35 | 47.45581 | 8.56997 | 1404 ft | 4 kts | 51° |
| 2026-05-06 12:35 | 47.45643 | 8.57022 | 1398 ft | 9 kts | 345° |
| 2026-05-06 12:36 | 47.45664 | 8.56971 | 1403 ft | 4 kts | 272° |
| 2026-05-06 12:36 | 47.45665 | 8.56964 | 1402 ft | 0 kts | 276° |
| 2026-05-06 12:36 | 47.45665 | 8.56952 | 1398 ft | 8 kts | 275° |
| 2026-05-06 12:37 | 47.45701 | 8.56423 | 1399 ft | 95 kts | 276° |
| 2026-05-06 12:37 | 47.45789 | 8.55100 | 1467 ft | 154 kts | 274° |
| 2026-05-06 12:37 | 47.45809 | 8.53445 | 2164 ft | 166 kts | 270° |
| 2026-05-06 12:37 | 47.45896 | 8.51747 | 3181 ft | 168 kts | 276° |
| 2026-05-06 12:38 | 47.46044 | 8.49967 | 3910 ft | 188 kts | 276° |
| 2026-05-06 12:38 | 47.46067 | 8.47908 | 4622 ft | 209 kts | 255° |
| 2026-05-06 12:38 | 47.45521 | 8.46016 | 5297 ft | 232 kts | 244° |
| 2026-05-06 12:38 | 47.44703 | 8.43757 | 6290 ft | 249 kts | 242° |
| 2026-05-06 12:39 | 47.43850 | 8.41487 | 7039 ft | 256 kts | 240° |
| 2026-05-06 12:39 | 47.42983 | 8.39161 | 7947 ft | 260 kts | 240° |
| 2026-05-06 12:39 | 47.41800 | 8.37123 | 8791 ft | 268 kts | 217° |
| 2026-05-06 12:39 | 47.40067 | 8.36043 | 9716 ft | 278 kts | 192° |
| 2026-05-06 12:40 | 47.38092 | 8.36257 | 10533 ft | 303 kts | 165° |
| 2026-05-06 12:40 | 47.36225 | 8.38002 | 11090 ft | 338 kts | 135° |
| 2026-05-06 12:40 | 47.34983 | 8.41098 | 11550 ft | 369 kts | 109° |
| 2026-05-06 12:40 | 47.34553 | 8.44969 | 11868 ft | 398 kts | 91° |
| 2026-05-06 12:41 | 47.34816 | 8.49138 | 12315 ft | 415 kts | 84° |
| 2026-05-06 12:41 | 47.35195 | 8.53389 | 13090 ft | 421 kts | 84° |
| 2026-05-06 12:41 | 47.35597 | 8.57680 | 13768 ft | 424 kts | 84° |
| 2026-05-06 12:41 | 47.36011 | 8.62003 | 14342 ft | 426 kts | 84° |
| 2026-05-06 12:42 | 47.36424 | 8.66332 | 14877 ft | 428 kts | 84° |
| 2026-05-06 12:42 | 47.36832 | 8.70687 | 15386 ft | 430 kts | 85° |
| 2026-05-06 12:42 | 47.37235 | 8.75076 | 15893 ft | 433 kts | 85° |
| 2026-05-06 12:42 | 47.37635 | 8.79489 | 16363 ft | 436 kts | 85° |
| 2026-05-06 12:43 | 47.38034 | 8.83945 | 16840 ft | 439 kts | 85° |
| 2026-05-06 12:43 | 47.38433 | 8.88429 | 17294 ft | 443 kts | 85° |
| 2026-05-06 12:43 | 47.38837 | 8.92954 | 17731 ft | 447 kts | 85° |
| 2026-05-06 12:43 | 47.39240 | 8.97457 | 18127 ft | 450 kts | 85° |
| 2026-05-06 12:44 | 47.39650 | 9.02050 | 18539 ft | 454 kts | 85° |
| 2026-05-06 12:44 | 47.40064 | 9.06696 | 18917 ft | 457 kts | 85° |
| 2026-05-06 12:44 | 47.40482 | 9.11402 | 19256 ft | 458 kts | 85° |
| 2026-05-06 12:44 | 47.40897 | 9.16084 | 19574 ft | 462 kts | 84° |
| 2026-05-06 12:45 | 47.41660 | 9.20716 | 19780 ft | 468 kts | 72° |
| 2026-05-06 12:45 | 47.42544 | 9.23619 | 19818 ft | 471 kts | 63° |
| 2026-05-06 12:45 | 47.46361 | 9.33366 | 19812 ft | 471 kts | 62° |
| 2026-05-06 12:46 | 47.48006 | 9.37565 | 19813 ft | 472 kts | 62° |
| 2026-05-06 12:46 | 47.49645 | 9.41768 | 19809 ft | 473 kts | 62° |
| 2026-05-06 12:46 | 47.51284 | 9.45988 | 19809 ft | 473 kts | 62° |
| 2026-05-06 12:46 | 47.52916 | 9.50217 | 19811 ft | 473 kts | 62° |
| 2026-05-06 12:47 | 47.54540 | 9.54454 | 19809 ft | 473 kts | 62° |
| 2026-05-06 12:47 | 47.56163 | 9.58698 | 19807 ft | 474 kts | 63° |
| 2026-05-06 12:47 | 47.57564 | 9.63087 | 19806 ft | 471 kts | 73° |
| 2026-05-06 12:47 | 47.58312 | 9.67774 | 19804 ft | 466 kts | 86° |
| 2026-05-06 12:48 | 47.58395 | 9.72533 | 19800 ft | 461 kts | 97° |
| 2026-05-06 12:48 | 47.58205 | 9.77272 | 19797 ft | 461 kts | 97° |
| 2026-05-06 12:48 | 47.58010 | 9.82005 | 19791 ft | 461 kts | 97° |
| 2026-05-06 12:48 | 47.57813 | 9.86745 | 19787 ft | 461 kts | 97° |
| 2026-05-06 12:49 | 47.57683 | 9.89889 | 19784 ft | 461 kts | 97° |
| 2026-05-06 12:49 | 47.57486 | 9.94672 | 19779 ft | 462 kts | 97° |
| 2026-05-06 12:49 | 47.57290 | 9.99445 | 19774 ft | 462 kts | 97° |
| 2026-05-06 12:49 | 47.57095 | 10.04190 | 19771 ft | 462 kts | 97° |
| 2026-05-06 12:50 | 47.56895 | 10.08948 | 19767 ft | 463 kts | 97° |
| 2026-05-06 12:50 | 47.56689 | 10.13701 | 19763 ft | 463 kts | 98° |
| 2026-05-06 12:50 | 47.56482 | 10.18394 | 19758 ft | 463 kts | 98° |
| 2026-05-06 12:50 | 47.56269 | 10.23150 | 19761 ft | 464 kts | 98° |
| 2026-05-06 12:51 | 47.56055 | 10.27918 | 19759 ft | 464 kts | 98° |
| 2026-05-06 12:51 | 47.55841 | 10.32689 | 19760 ft | 465 kts | 98° |
| 2026-05-06 12:51 | 47.55625 | 10.37467 | 19764 ft | 465 kts | 98° |
| 2026-05-06 12:51 | 47.55410 | 10.42186 | 19762 ft | 465 kts | 98° |
| 2026-05-06 12:52 | 47.55190 | 10.46969 | 19761 ft | 466 kts | 98° |
| 2026-05-06 12:52 | 47.55112 | 10.51836 | 19760 ft | 470 kts | 90° |
| 2026-05-06 12:52 | 47.55714 | 10.56620 | 19757 ft | 478 kts | 76° |
| 2026-05-06 12:52 | 47.57062 | 10.61143 | 19752 ft | 483 kts | 62° |
| 2026-05-06 12:53 | 47.58784 | 10.65419 | 19758 ft | 484 kts | 61° |
| 2026-05-06 12:53 | 47.60516 | 10.69690 | 19760 ft | 484 kts | 61° |
| 2026-05-06 12:53 | 47.62247 | 10.73963 | 19764 ft | 484 kts | 61° |
| 2026-05-06 12:53 | 47.63972 | 10.78240 | 19765 ft | 484 kts | 62° |
| 2026-05-06 12:54 | 47.65694 | 10.82534 | 19764 ft | 484 kts | 62° |
| 2026-05-06 12:54 | 47.67437 | 10.86818 | 19576 ft | 485 kts | 59° |
| 2026-05-06 12:54 | 47.69583 | 10.90678 | 18545 ft | 489 kts | 43° |
| 2026-05-06 12:54 | 47.72221 | 10.93805 | 17996 ft | 479 kts | 38° |
| 2026-05-06 12:55 | 47.74828 | 10.96812 | 17331 ft | 471 kts | 39° |
| 2026-05-06 12:55 | 47.77383 | 10.99807 | 16623 ft | 464 kts | 39° |
| 2026-05-06 12:55 | 47.79893 | 11.02794 | 15923 ft | 459 kts | 39° |
| 2026-05-06 12:55 | 47.82364 | 11.05764 | 15266 ft | 454 kts | 39° |
| 2026-05-06 12:56 | 47.84805 | 11.08709 | 14606 ft | 449 kts | 39° |
| 2026-05-06 12:56 | 47.87224 | 11.11620 | 13956 ft | 445 kts | 39° |
| 2026-05-06 12:56 | 47.89742 | 11.14251 | 13324 ft | 440 kts | 28° |
| 2026-05-06 12:56 | 47.92419 | 11.16405 | 12607 ft | 436 kts | 28° |
| 2026-05-06 12:57 | 47.95079 | 11.18536 | 11957 ft | 431 kts | 28° |
| 2026-05-06 12:57 | 47.97718 | 11.20640 | 11118 ft | 431 kts | 28° |
| 2026-05-06 12:57 | 48.00342 | 11.22723 | 10711 ft | 421 kts | 28° |
| 2026-05-06 12:57 | 48.02904 | 11.24762 | 10276 ft | 413 kts | 28° |
| 2026-05-06 12:58 | 48.05418 | 11.26768 | 9717 ft | 407 kts | 28° |
| 2026-05-06 12:58 | 48.07896 | 11.28750 | 9020 ft | 401 kts | 28° |
| 2026-05-06 12:58 | 48.10333 | 11.30706 | 8377 ft | 394 kts | 28° |
| 2026-05-06 12:58 | 48.12646 | 11.32564 | 8176 ft | 367 kts | 28° |
| 2026-05-06 12:59 | 48.14799 | 11.34293 | 7903 ft | 337 kts | 28° |
| 2026-05-06 12:59 | 48.16823 | 11.35923 | 7350 ft | 321 kts | 29° |
| 2026-05-06 12:59 | 48.18711 | 11.37445 | 7222 ft | 295 kts | 29° |
| 2026-05-06 12:59 | 48.20445 | 11.38843 | 7096 ft | 272 kts | 29° |
| 2026-05-06 13:00 | 48.22053 | 11.40140 | 6786 ft | 259 kts | 29° |
| 2026-05-06 13:00 | 48.23652 | 11.41429 | 6174 ft | 261 kts | 30° |
| 2026-05-06 13:00 | 48.25239 | 11.42710 | 5676 ft | 257 kts | 30° |
| 2026-05-06 13:00 | 48.26800 | 11.43970 | 5197 ft | 254 kts | 30° |
| 2026-05-06 13:01 | 48.28344 | 11.45216 | 4751 ft | 249 kts | 31° |
| 2026-05-06 13:01 | 48.29856 | 11.46445 | 4309 ft | 245 kts | 31° |
| 2026-05-06 13:01 | 48.31137 | 11.48031 | 4036 ft | 230 kts | 52° |
| 2026-05-06 13:01 | 48.31924 | 11.50006 | 3980 ft | 212 kts | 70° |
| 2026-05-06 13:02 | 48.32247 | 11.52051 | 4005 ft | 193 kts | 85° |
| 2026-05-06 13:02 | 48.32400 | 11.54048 | 4015 ft | 191 kts | 84° |
| 2026-05-06 13:02 | 48.32562 | 11.56005 | 3945 ft | 188 kts | 83° |
| 2026-05-06 13:02 | 48.32720 | 11.57966 | 3760 ft | 189 kts | 83° |
| 2026-05-06 13:03 | 48.32876 | 11.59931 | 3544 ft | 190 kts | 82° |
| 2026-05-06 13:03 | 48.33031 | 11.61894 | 3274 ft | 187 kts | 83° |
| 2026-05-06 13:03 | 48.33180 | 11.63782 | 3046 ft | 178 kts | 83° |
| 2026-05-06 13:03 | 48.33317 | 11.65532 | 2815 ft | 160 kts | 83° |
| 2026-05-06 13:04 | 48.33443 | 11.67140 | 2599 ft | 150 kts | 82° |
| 2026-05-06 13:04 | 48.33562 | 11.68648 | 2399 ft | 142 kts | 83° |
| 2026-05-06 13:04 | 48.33677 | 11.70117 | 2210 ft | 140 kts | 81° |
| 2026-05-06 13:04 | 48.33790 | 11.71567 | 2013 ft | 140 kts | 81° |
| 2026-05-06 13:05 | 48.33902 | 11.73008 | 1825 ft | 139 kts | 81° |
| 2026-05-06 13:05 | 48.34017 | 11.74448 | 1649 ft | 138 kts | 80° |
| 2026-05-06 13:05 | 48.34126 | 11.75881 | 1509 ft | 135 kts | 82° |
| 2026-05-06 13:05 | 48.34228 | 11.77119 | 1485 ft | 98 kts | 83° |
| 2026-05-06 13:06 | 48.34289 | 11.77882 | 1485 ft | 49 kts | 85° |
| 2026-05-06 13:06 | 48.34315 | 11.78174 | 1480 ft | 20 kts | 68° |
| 2026-05-06 13:06 | 48.34380 | 11.78361 | 1475 ft | 21 kts | 56° |
| 2026-05-06 13:06 | 48.34469 | 11.78536 | 1485 ft | 22 kts | 52° |
| 2026-05-06 13:07 | 48.34487 | 11.78571 | 1485 ft | 0 kts | 53° |
| 2026-05-06 13:07 | 48.34495 | 11.78587 | 1485 ft | 8 kts | 53° |
| 2026-05-06 13:07 | 48.34562 | 11.78722 | 1482 ft | 23 kts | 53° |
| 2026-05-06 13:07 | 48.34635 | 11.78945 | 1482 ft | 19 kts | 82° |
| 2026-05-06 13:08 | 48.34653 | 11.79150 | 1480 ft | 21 kts | 83° |
| 2026-05-06 13:08 | 48.34669 | 11.79372 | 1481 ft | 22 kts | 84° |
| 2026-05-06 13:08 | 48.34684 | 11.79569 | 1474 ft | 18 kts | 83° |
| 2026-05-06 13:08 | 48.34718 | 11.79716 | 1484 ft | 12 kts | 14° |
| 2026-05-06 13:09 | 48.34811 | 11.79702 | 1481 ft | 15 kts | 352° |
| 2026-05-06 13:09 | 48.34902 | 11.79684 | 1481 ft | 12 kts | 353° |
| 2026-05-06 13:09 | 48.34919 | 11.79681 | 1486 ft | 0 kts | 353° |
| 2026-05-06 13:10 | 48.34944 | 11.79677 | 1477 ft | 11 kts | 353° |
| 2026-05-06 13:11 | 48.35042 | 11.79660 | 1475 ft | 12 kts | 353° |
| 2026-05-06 13:11 | 48.35072 | 11.79654 | 1485 ft | 1 kts | 353° |
| 2026-05-06 13:11 | 48.35077 | 11.79653 | 1485 ft | 0 kts | 353° |
| 2026-05-06 13:11 | 48.35110 | 11.79671 | 1485 ft | 9 kts | 40° |
| 2026-05-06 13:12 | 48.35134 | 11.79812 | 1485 ft | 18 kts | 81° |
| 2026-05-06 13:12 | 48.35154 | 11.80005 | 1485 ft | 14 kts | 82° |
| 2026-05-06 13:12 | 48.35168 | 11.80145 | 1485 ft | 14 kts | 75° |
| 2026-05-06 13:12 | 48.35255 | 11.80178 | 1481 ft | 15 kts | 352° |
| 2026-05-06 13:13 | 48.35357 | 11.80156 | 1481 ft | 11 kts | 352° |
| 2026-05-06 13:13 | 48.35439 | 11.80138 | 1479 ft | 13 kts | 354° |
| 2026-05-06 13:13 | 48.35494 | 11.80128 | 1478 ft | 7 kts | 353° |
| 2026-05-06 13:13 | 48.35506 | 11.80126 | 1478 ft | 0 kts | 353° |
| 2026-05-06 13:14 | 48.35512 | 11.80124 | 1479 ft | 4 kts | 350° |
| 2026-05-06 13:14 | 48.35514 | 11.80094 | 1483 ft | 2 kts | 264° |
| 2026-05-06 13:15 | 48.35512 | 11.80060 | 1482 ft | 5 kts | 263° |
| 2026-05-06 13:15 | 48.35508 | 11.80011 | 1485 ft | 4 kts | 263° |
| 2026-05-06 13:15 | 48.35507 | 11.80005 | 1481 ft | 0 kts | 263° |